sensor_id;sensor_type;location;lat;lon;timestamp;P1;durP1;ratioP1;P2;durP2;ratioP2
52041;SDS011;38052;45.944;13.624;2022-11-12T00:01:41;3.10;;;1.00;;
52041;SDS011;38052;45.944;13.624;2022-11-12T00:04:08;1.70;;;0.98;;
52041;SDS011;38052;45.944;13.624;2022-11-12T00:06:34;2.85;;;0.90;;
52041;SDS011;38052;45.944;13.624;2022-11-12T00:09:00;2.20;;;0.73;;
52041;SDS011;38052;45.944;13.624;2022-11-12T00:11:27;2.53;;;1.08;;
52041;SDS011;38052;45.944;13.624;2022-11-12T00:13:53;2.78;;;1.00;;
52041;SDS011;38052;45.944;13.624;2022-11-12T00:16:20;2.33;;;1.15;;
52041;SDS011;38052;45.944;13.624;2022-11-12T00:18:47;6.93;;;1.80;;
52041;SDS011;38052;45.944;13.624;2022-11-12T00:21:13;5.35;;;1.00;;
52041;SDS011;38052;45.944;13.624;2022-11-12T00:23:40;1.85;;;1.17;;
52041;SDS011;38052;45.944;13.624;2022-11-12T00:26:06;1.83;;;0.80;;
52041;SDS011;38052;45.944;13.624;2022-11-12T00:28:33;5.38;;;1.02;;
52041;SDS011;38052;45.944;13.624;2022-11-12T00:31:05;3.30;;;1.00;;
52041;SDS011;38052;45.944;13.624;2022-11-12T00:33:31;2.05;;;0.95;;
52041;SDS011;38052;45.944;13.624;2022-11-12T00:35:58;3.60;;;1.05;;
52041;SDS011;38052;45.944;13.624;2022-11-12T00:38:24;6.88;;;0.98;;
52041;SDS011;38052;45.944;13.624;2022-11-12T00:40:51;2.47;;;0.80;;
52041;SDS011;38052;45.944;13.624;2022-11-12T00:43:17;2.85;;;0.90;;
52041;SDS011;38052;45.944;13.624;2022-11-12T00:45:44;2.72;;;0.98;;
52041;SDS011;38052;45.944;13.624;2022-11-12T00:48:10;2.22;;;0.98;;
52041;SDS011;38052;45.944;13.624;2022-11-12T00:50:37;1.48;;;0.68;;
52041;SDS011;38052;45.944;13.624;2022-11-12T00:53:04;4.35;;;1.30;;
52041;SDS011;38052;45.944;13.624;2022-11-12T00:55:30;2.85;;;0.98;;
52041;SDS011;38052;45.944;13.624;2022-11-12T00:57:57;1.70;;;0.63;;
52041;SDS011;38052;45.944;13.624;2022-11-12T01:00:24;2.25;;;1.05;;
52041;SDS011;38052;45.944;13.624;2022-11-12T01:02:50;2.28;;;1.15;;
52041;SDS011;38052;45.944;13.624;2022-11-12T01:05:17;2.05;;;1.15;;
52041;SDS011;38052;45.944;13.624;2022-11-12T01:07:44;4.90;;;0.93;;
52041;SDS011;38052;45.944;13.624;2022-11-12T01:10:11;2.05;;;0.70;;
52041;SDS011;38052;45.944;13.624;2022-11-12T01:12:53;1.38;;;0.80;;
52041;SDS011;38052;45.944;13.624;2022-11-12T01:15:40;2.17;;;0.73;;
52041;SDS011;38052;45.944;13.624;2022-11-12T01:18:07;2.58;;;0.80;;
52041;SDS011;38052;45.944;13.624;2022-11-12T01:20:35;2.78;;;0.95;;
52041;SDS011;38052;45.944;13.624;2022-11-12T01:23:02;1.85;;;0.80;;
52041;SDS011;38052;45.944;13.624;2022-11-12T01:25:28;1.70;;;0.63;;
52041;SDS011;38052;45.944;13.624;2022-11-12T01:27:54;2.95;;;0.90;;
52041;SDS011;38052;45.944;13.624;2022-11-12T01:30:20;2.75;;;0.93;;
52041;SDS011;38052;45.944;13.624;2022-11-12T01:32:46;3.80;;;1.40;;
52041;SDS011;38052;45.944;13.624;2022-11-12T01:35:12;1.05;;;0.60;;
52041;SDS011;38052;45.944;13.624;2022-11-12T01:37:39;3.58;;;1.13;;
52041;SDS011;38052;45.944;13.624;2022-11-12T01:40:06;2.40;;;0.80;;
52041;SDS011;38052;45.944;13.624;2022-11-12T01:42:33;3.42;;;1.30;;
52041;SDS011;38052;45.944;13.624;2022-11-12T01:44:59;2.42;;;0.98;;
52041;SDS011;38052;45.944;13.624;2022-11-12T01:47:26;1.75;;;0.93;;
52041;SDS011;38052;45.944;13.624;2022-11-12T01:50:14;0.85;;;0.47;;
52041;SDS011;38052;45.944;13.624;2022-11-12T01:52:44;2.47;;;1.15;;
52041;SDS011;38052;45.944;13.624;2022-11-12T01:55:15;4.22;;;0.85;;
52041;SDS011;38052;45.944;13.624;2022-11-12T01:58:04;1.90;;;0.75;;
52041;SDS011;38052;45.944;13.624;2022-11-12T02:00:30;4.57;;;1.02;;
52041;SDS011;38052;45.944;13.624;2022-11-12T02:02:57;2.28;;;0.70;;
52041;SDS011;38052;45.944;13.624;2022-11-12T02:05:24;2.00;;;0.93;;
52041;SDS011;38052;45.944;13.624;2022-11-12T02:07:52;2.10;;;0.80;;
52041;SDS011;38052;45.944;13.624;2022-11-12T02:10:19;2.40;;;0.80;;
52041;SDS011;38052;45.944;13.624;2022-11-12T02:12:46;2.38;;;0.93;;
52041;SDS011;38052;45.944;13.624;2022-11-12T02:15:32;1.95;;;0.70;;
52041;SDS011;38052;45.944;13.624;2022-11-12T02:17:58;2.95;;;1.13;;
52041;SDS011;38052;45.944;13.624;2022-11-12T02:20:25;2.55;;;0.85;;
52041;SDS011;38052;45.944;13.624;2022-11-12T02:22:51;2.30;;;0.70;;
52041;SDS011;38052;45.944;13.624;2022-11-12T02:25:18;3.42;;;1.50;;
52041;SDS011;38052;45.944;13.624;2022-11-12T02:27:45;2.55;;;0.93;;
52041;SDS011;38052;45.944;13.624;2022-11-12T02:30:16;3.60;;;0.88;;
52041;SDS011;38052;45.944;13.624;2022-11-12T02:32:42;1.83;;;0.85;;
52041;SDS011;38052;45.944;13.624;2022-11-12T02:35:09;2.15;;;0.85;;
52041;SDS011;38052;45.944;13.624;2022-11-12T02:37:35;4.03;;;0.98;;
52041;SDS011;38052;45.944;13.624;2022-11-12T02:40:02;2.08;;;0.88;;
52041;SDS011;38052;45.944;13.624;2022-11-12T02:42:28;1.65;;;0.55;;
52041;SDS011;38052;45.944;13.624;2022-11-12T02:44:54;1.30;;;0.52;;
52041;SDS011;38052;45.944;13.624;2022-11-12T02:47:21;1.67;;;0.70;;
52041;SDS011;38052;45.944;13.624;2022-11-12T02:49:48;1.70;;;0.68;;
52041;SDS011;38052;45.944;13.624;2022-11-12T02:52:14;1.38;;;0.40;;
52041;SDS011;38052;45.944;13.624;2022-11-12T02:54:41;1.25;;;0.55;;
52041;SDS011;38052;45.944;13.624;2022-11-12T02:57:07;2.05;;;0.77;;
52041;SDS011;38052;45.944;13.624;2022-11-12T02:59:34;1.73;;;0.80;;
52041;SDS011;38052;45.944;13.624;2022-11-12T03:02:00;2.40;;;0.80;;
52041;SDS011;38052;45.944;13.624;2022-11-12T03:04:26;2.25;;;0.60;;
52041;SDS011;38052;45.944;13.624;2022-11-12T03:06:53;4.32;;;0.90;;
52041;SDS011;38052;45.944;13.624;2022-11-12T03:09:19;3.67;;;0.70;;
52041;SDS011;38052;45.944;13.624;2022-11-12T03:11:46;1.25;;;0.40;;
52041;SDS011;38052;45.944;13.624;2022-11-12T03:14:12;1.58;;;0.57;;
52041;SDS011;38052;45.944;13.624;2022-11-12T03:16:38;1.67;;;0.57;;
52041;SDS011;38052;45.944;13.624;2022-11-12T03:19:05;0.70;;;0.30;;
52041;SDS011;38052;45.944;13.624;2022-11-12T03:21:32;2.28;;;0.45;;
52041;SDS011;38052;45.944;13.624;2022-11-12T03:23:59;1.35;;;0.57;;
52041;SDS011;38052;45.944;13.624;2022-11-12T03:26:26;1.20;;;0.30;;
52041;SDS011;38052;45.944;13.624;2022-11-12T03:28:52;2.70;;;1.38;;
52041;SDS011;38052;45.944;13.624;2022-11-12T03:31:19;5.22;;;0.47;;
52041;SDS011;38052;45.944;13.624;2022-11-12T03:33:45;5.32;;;0.85;;
52041;SDS011;38052;45.944;13.624;2022-11-12T03:36:12;1.33;;;0.50;;
52041;SDS011;38052;45.944;13.624;2022-11-12T03:38:38;2.67;;;0.70;;
52041;SDS011;38052;45.944;13.624;2022-11-12T03:41:05;1.63;;;0.60;;
52041;SDS011;38052;45.944;13.624;2022-11-12T03:43:31;1.20;;;0.80;;
52041;SDS011;38052;45.944;13.624;2022-11-12T03:45:58;3.95;;;0.73;;
52041;SDS011;38052;45.944;13.624;2022-11-12T03:48:25;3.17;;;1.00;;
52041;SDS011;38052;45.944;13.624;2022-11-12T03:50:51;1.77;;;0.40;;
52041;SDS011;38052;45.944;13.624;2022-11-12T03:53:18;1.45;;;0.45;;
52041;SDS011;38052;45.944;13.624;2022-11-12T03:55:45;1.27;;;0.65;;
52041;SDS011;38052;45.944;13.624;2022-11-12T03:58:11;3.80;;;0.55;;
52041;SDS011;38052;45.944;13.624;2022-11-12T04:00:38;3.05;;;0.70;;
52041;SDS011;38052;45.944;13.624;2022-11-12T04:03:04;1.20;;;0.45;;
52041;SDS011;38052;45.944;13.624;2022-11-12T04:05:30;2.30;;;0.68;;
52041;SDS011;38052;45.944;13.624;2022-11-12T04:08:19;2.28;;;1.05;;
52041;SDS011;38052;45.944;13.624;2022-11-12T04:13:33;1.02;;;0.38;;
52041;SDS011;38052;45.944;13.624;2022-11-12T04:16:10;1.63;;;0.60;;
52041;SDS011;38052;45.944;13.624;2022-11-12T04:18:56;9.40;;;0.88;;
52041;SDS011;38052;45.944;13.624;2022-11-12T04:21:42;1.33;;;0.57;;
52041;SDS011;38052;45.944;13.624;2022-11-12T04:24:21;2.08;;;0.80;;
52041;SDS011;38052;45.944;13.624;2022-11-12T04:27:07;4.40;;;1.33;;
52041;SDS011;38052;45.944;13.624;2022-11-12T04:29:33;5.43;;;1.33;;
52041;SDS011;38052;45.944;13.624;2022-11-12T04:32:18;1.00;;;0.40;;
52041;SDS011;38052;45.944;13.624;2022-11-12T04:34:45;1.58;;;1.00;;
52041;SDS011;38052;45.944;13.624;2022-11-12T04:37:11;2.38;;;0.70;;
52041;SDS011;38052;45.944;13.624;2022-11-12T04:39:37;2.10;;;0.93;;
52041;SDS011;38052;45.944;13.624;2022-11-12T04:42:04;1.67;;;0.80;;
52041;SDS011;38052;45.944;13.624;2022-11-12T04:44:48;2.38;;;0.50;;
52041;SDS011;38052;45.944;13.624;2022-11-12T04:47:24;0.90;;;0.50;;
52041;SDS011;38052;45.944;13.624;2022-11-12T04:49:51;3.53;;;1.02;;
52041;SDS011;38052;45.944;13.624;2022-11-12T04:52:17;1.50;;;0.40;;
52041;SDS011;38052;45.944;13.624;2022-11-12T04:54:43;2.65;;;0.65;;
52041;SDS011;38052;45.944;13.624;2022-11-12T04:57:09;1.60;;;0.63;;
52041;SDS011;38052;45.944;13.624;2022-11-12T04:59:36;0.80;;;0.32;;
52041;SDS011;38052;45.944;13.624;2022-11-12T05:02:03;2.80;;;0.75;;
52041;SDS011;38052;45.944;13.624;2022-11-12T05:04:30;1.67;;;0.60;;
52041;SDS011;38052;45.944;13.624;2022-11-12T05:06:57;4.25;;;1.30;;
52041;SDS011;38052;45.944;13.624;2022-11-12T05:09:25;1.13;;;0.50;;
52041;SDS011;38052;45.944;13.624;2022-11-12T05:11:51;1.63;;;0.57;;
52041;SDS011;38052;45.944;13.624;2022-11-12T05:14:19;5.60;;;0.57;;
52041;SDS011;38052;45.944;13.624;2022-11-12T05:16:46;1.90;;;0.40;;
52041;SDS011;38052;45.944;13.624;2022-11-12T05:19:12;0.88;;;0.60;;
52041;SDS011;38052;45.944;13.624;2022-11-12T05:21:39;1.95;;;0.57;;
52041;SDS011;38052;45.944;13.624;2022-11-12T05:24:24;0.90;;;0.40;;
52041;SDS011;38052;45.944;13.624;2022-11-12T05:26:51;2.42;;;0.88;;
52041;SDS011;38052;45.944;13.624;2022-11-12T05:29:17;1.75;;;0.47;;
52041;SDS011;38052;45.944;13.624;2022-11-12T05:31:44;1.65;;;0.50;;
52041;SDS011;38052;45.944;13.624;2022-11-12T05:34:11;1.55;;;0.55;;
52041;SDS011;38052;45.944;13.624;2022-11-12T05:36:37;2.00;;;0.52;;
52041;SDS011;38052;45.944;13.624;2022-11-12T05:39:04;1.77;;;0.70;;
52041;SDS011;38052;45.944;13.624;2022-11-12T05:41:30;3.13;;;0.60;;
52041;SDS011;38052;45.944;13.624;2022-11-12T05:43:56;2.45;;;0.60;;
52041;SDS011;38052;45.944;13.624;2022-11-12T05:46:22;4.20;;;0.40;;
52041;SDS011;38052;45.944;13.624;2022-11-12T05:48:49;2.45;;;0.65;;
52041;SDS011;38052;45.944;13.624;2022-11-12T05:51:16;2.55;;;0.80;;
52041;SDS011;38052;45.944;13.624;2022-11-12T05:53:42;1.40;;;0.43;;
52041;SDS011;38052;45.944;13.624;2022-11-12T05:56:08;1.80;;;0.45;;
52041;SDS011;38052;45.944;13.624;2022-11-12T05:58:35;2.58;;;0.75;;
52041;SDS011;38052;45.944;13.624;2022-11-12T06:01:02;1.70;;;0.43;;
52041;SDS011;38052;45.944;13.624;2022-11-12T06:03:29;6.22;;;0.70;;
52041;SDS011;38052;45.944;13.624;2022-11-12T06:05:55;2.78;;;0.80;;
52041;SDS011;38052;45.944;13.624;2022-11-12T06:08:22;1.88;;;0.70;;
52041;SDS011;38052;45.944;13.624;2022-11-12T06:10:49;3.83;;;0.93;;
52041;SDS011;38052;45.944;13.624;2022-11-12T06:13:15;2.53;;;0.55;;
52041;SDS011;38052;45.944;13.624;2022-11-12T06:15:42;1.70;;;0.70;;
52041;SDS011;38052;45.944;13.624;2022-11-12T06:18:08;1.75;;;0.63;;
52041;SDS011;38052;45.944;13.624;2022-11-12T06:20:35;3.30;;;0.38;;
52041;SDS011;38052;45.944;13.624;2022-11-12T06:23:01;1.10;;;0.40;;
52041;SDS011;38052;45.944;13.624;2022-11-12T06:25:28;0.95;;;0.50;;
52041;SDS011;38052;45.944;13.624;2022-11-12T06:27:54;1.23;;;0.50;;
52041;SDS011;38052;45.944;13.624;2022-11-12T06:30:21;1.55;;;0.47;;
52041;SDS011;38052;45.944;13.624;2022-11-12T06:32:48;3.55;;;0.60;;
52041;SDS011;38052;45.944;13.624;2022-11-12T06:35:15;1.30;;;0.47;;
52041;SDS011;38052;45.944;13.624;2022-11-12T06:37:41;7.85;;;0.60;;
52041;SDS011;38052;45.944;13.624;2022-11-12T06:40:08;2.55;;;0.50;;
52041;SDS011;38052;45.944;13.624;2022-11-12T06:42:34;1.00;;;0.40;;
52041;SDS011;38052;45.944;13.624;2022-11-12T06:45:00;2.53;;;0.90;;
52041;SDS011;38052;45.944;13.624;2022-11-12T06:47:27;1.92;;;0.73;;
52041;SDS011;38052;45.944;13.624;2022-11-12T06:49:54;5.65;;;0.75;;
52041;SDS011;38052;45.944;13.624;2022-11-12T06:52:20;2.03;;;0.52;;
52041;SDS011;38052;45.944;13.624;2022-11-12T06:54:46;1.63;;;0.50;;
52041;SDS011;38052;45.944;13.624;2022-11-12T06:57:13;1.17;;;0.57;;
52041;SDS011;38052;45.944;13.624;2022-11-12T06:59:39;1.02;;;0.40;;
52041;SDS011;38052;45.944;13.624;2022-11-12T07:02:06;1.95;;;0.40;;
52041;SDS011;38052;45.944;13.624;2022-11-12T07:04:32;1.55;;;0.65;;
52041;SDS011;38052;45.944;13.624;2022-11-12T07:06:59;2.53;;;0.50;;
52041;SDS011;38052;45.944;13.624;2022-11-12T07:09:25;1.52;;;0.50;;
52041;SDS011;38052;45.944;13.624;2022-11-12T07:11:51;1.88;;;0.73;;
52041;SDS011;38052;45.944;13.624;2022-11-12T07:14:18;2.47;;;0.45;;
52041;SDS011;38052;45.944;13.624;2022-11-12T07:16:45;4.85;;;0.70;;
52041;SDS011;38052;45.944;13.624;2022-11-12T07:19:12;2.83;;;0.80;;
52041;SDS011;38052;45.944;13.624;2022-11-12T07:21:38;1.48;;;0.75;;
52041;SDS011;38052;45.944;13.624;2022-11-12T07:24:04;0.93;;;0.47;;
52041;SDS011;38052;45.944;13.624;2022-11-12T07:26:31;4.38;;;0.88;;
52041;SDS011;38052;45.944;13.624;2022-11-12T07:28:58;1.73;;;0.47;;
52041;SDS011;38052;45.944;13.624;2022-11-12T07:31:25;2.35;;;0.65;;
52041;SDS011;38052;45.944;13.624;2022-11-12T07:33:51;4.63;;;0.60;;
52041;SDS011;38052;45.944;13.624;2022-11-12T07:36:18;2.15;;;0.60;;
52041;SDS011;38052;45.944;13.624;2022-11-12T07:38:45;3.30;;;0.40;;
52041;SDS011;38052;45.944;13.624;2022-11-12T07:41:13;3.50;;;0.40;;
52041;SDS011;38052;45.944;13.624;2022-11-12T07:43:41;4.25;;;0.70;;
52041;SDS011;38052;45.944;13.624;2022-11-12T07:46:09;2.97;;;0.82;;
52041;SDS011;38052;45.944;13.624;2022-11-12T07:48:36;2.03;;;0.60;;
52041;SDS011;38052;45.944;13.624;2022-11-12T07:51:03;5.60;;;0.40;;
52041;SDS011;38052;45.944;13.624;2022-11-12T07:53:30;1.67;;;0.85;;
52041;SDS011;38052;45.944;13.624;2022-11-12T07:55:57;2.67;;;0.55;;
52041;SDS011;38052;45.944;13.624;2022-11-12T07:58:24;2.72;;;0.30;;
52041;SDS011;38052;45.944;13.624;2022-11-12T08:00:51;1.95;;;0.65;;
52041;SDS011;38052;45.944;13.624;2022-11-12T08:03:17;3.17;;;0.80;;
52041;SDS011;38052;45.944;13.624;2022-11-12T08:05:44;4.85;;;1.00;;
52041;SDS011;38052;45.944;13.624;2022-11-12T08:08:11;2.60;;;1.20;;
52041;SDS011;38052;45.944;13.624;2022-11-12T08:10:38;3.13;;;1.38;;
52041;SDS011;38052;45.944;13.624;2022-11-12T08:13:04;3.13;;;0.90;;
52041;SDS011;38052;45.944;13.624;2022-11-12T08:15:31;3.67;;;1.05;;
52041;SDS011;38052;45.944;13.624;2022-11-12T08:17:57;1.88;;;1.05;;
52041;SDS011;38052;45.944;13.624;2022-11-12T08:20:24;2.55;;;0.70;;
52041;SDS011;38052;45.944;13.624;2022-11-12T08:22:51;1.08;;;0.52;;
52041;SDS011;38052;45.944;13.624;2022-11-12T08:25:17;1.83;;;0.88;;
52041;SDS011;38052;45.944;13.624;2022-11-12T08:27:43;2.60;;;0.88;;
52041;SDS011;38052;45.944;13.624;2022-11-12T08:30:09;2.08;;;0.90;;
52041;SDS011;38052;45.944;13.624;2022-11-12T08:32:38;3.92;;;1.73;;
52041;SDS011;38052;45.944;13.624;2022-11-12T08:35:04;3.72;;;1.40;;
52041;SDS011;38052;45.944;13.624;2022-11-12T08:37:31;3.10;;;1.40;;
52041;SDS011;38052;45.944;13.624;2022-11-12T08:39:58;5.10;;;2.10;;
52041;SDS011;38052;45.944;13.624;2022-11-12T08:42:24;5.28;;;1.55;;
52041;SDS011;38052;45.944;13.624;2022-11-12T08:44:51;2.17;;;1.48;;
52041;SDS011;38052;45.944;13.624;2022-11-12T08:47:18;6.07;;;1.20;;
52041;SDS011;38052;45.944;13.624;2022-11-12T08:49:44;2.90;;;1.15;;
52041;SDS011;38052;45.944;13.624;2022-11-12T08:52:11;3.05;;;1.35;;
52041;SDS011;38052;45.944;13.624;2022-11-12T08:54:38;8.32;;;0.95;;
52041;SDS011;38052;45.944;13.624;2022-11-12T08:57:06;2.00;;;1.17;;
52041;SDS011;38052;45.944;13.624;2022-11-12T08:59:32;2.13;;;0.75;;
52041;SDS011;38052;45.944;13.624;2022-11-12T09:01:58;5.03;;;0.77;;
52041;SDS011;38052;45.944;13.624;2022-11-12T09:04:25;0.93;;;0.55;;
52041;SDS011;38052;45.944;13.624;2022-11-12T09:06:52;3.83;;;0.95;;
52041;SDS011;38052;45.944;13.624;2022-11-12T09:09:18;2.35;;;0.73;;
52041;SDS011;38052;45.944;13.624;2022-11-12T09:11:44;3.38;;;0.80;;
52041;SDS011;38052;45.944;13.624;2022-11-12T09:14:11;3.08;;;0.60;;
52041;SDS011;38052;45.944;13.624;2022-11-12T09:16:37;3.38;;;0.82;;
52041;SDS011;38052;45.944;13.624;2022-11-12T09:19:04;2.13;;;0.80;;
52041;SDS011;38052;45.944;13.624;2022-11-12T09:21:30;2.45;;;0.90;;
52041;SDS011;38052;45.944;13.624;2022-11-12T09:23:56;3.35;;;0.68;;
52041;SDS011;38052;45.944;13.624;2022-11-12T09:26:24;1.85;;;0.57;;
52041;SDS011;38052;45.944;13.624;2022-11-12T09:28:50;1.00;;;0.40;;
52041;SDS011;38052;45.944;13.624;2022-11-12T09:31:18;1.20;;;0.55;;
52041;SDS011;38052;45.944;13.624;2022-11-12T09:33:45;1.38;;;0.68;;
52041;SDS011;38052;45.944;13.624;2022-11-12T09:36:11;5.63;;;1.80;;
52041;SDS011;38052;45.944;13.624;2022-11-12T09:38:37;2.10;;;0.60;;
52041;SDS011;38052;45.944;13.624;2022-11-12T09:41:13;5.10;;;0.85;;
52041;SDS011;38052;45.944;13.624;2022-11-12T09:43:49;1.73;;;0.47;;
52041;SDS011;38052;45.944;13.624;2022-11-12T09:46:26;2.00;;;0.68;;
52041;SDS011;38052;45.944;13.624;2022-11-12T09:49:05;3.17;;;0.73;;
52041;SDS011;38052;45.944;13.624;2022-11-12T09:51:33;1.52;;;0.52;;
52041;SDS011;38052;45.944;13.624;2022-11-12T09:54:01;1.42;;;0.65;;
52041;SDS011;38052;45.944;13.624;2022-11-12T09:56:29;3.92;;;0.80;;
52041;SDS011;38052;45.944;13.624;2022-11-12T09:58:55;1.48;;;0.60;;
52041;SDS011;38052;45.944;13.624;2022-11-12T10:03:52;2.78;;;0.55;;
52041;SDS011;38052;45.944;13.624;2022-11-12T10:06:22;1.13;;;0.80;;
52041;SDS011;38052;45.944;13.624;2022-11-12T10:17:07;4.82;;;1.40;;
52041;SDS011;38052;45.944;13.624;2022-11-12T10:25:10;3.13;;;1.10;;
52041;SDS011;38052;45.944;13.624;2022-11-12T10:27:38;2.63;;;0.95;;
52041;SDS011;38052;45.944;13.624;2022-11-12T10:30:05;1.38;;;0.60;;
52041;SDS011;38052;45.944;13.624;2022-11-12T10:32:35;1.85;;;0.70;;
52041;SDS011;38052;45.944;13.624;2022-11-12T10:35:02;1.38;;;0.75;;
52041;SDS011;38052;45.944;13.624;2022-11-12T10:45:21;2.35;;;0.43;;
52041;SDS011;38052;45.944;13.624;2022-11-12T10:47:48;2.90;;;0.80;;
52041;SDS011;38052;45.944;13.624;2022-11-12T10:50:29;1.25;;;0.65;;
52041;SDS011;38052;45.944;13.624;2022-11-12T10:55:24;2.33;;;0.88;;
52041;SDS011;38052;45.944;13.624;2022-11-12T11:00:33;3.17;;;0.52;;
52041;SDS011;38052;45.944;13.624;2022-11-12T11:02:59;2.08;;;0.70;;
52041;SDS011;38052;45.944;13.624;2022-11-12T11:05:37;1.70;;;0.73;;
52041;SDS011;38052;45.944;13.624;2022-11-12T11:08:04;3.08;;;0.70;;
52041;SDS011;38052;45.944;13.624;2022-11-12T11:10:32;2.10;;;0.93;;
52041;SDS011;38052;45.944;13.624;2022-11-12T11:15:56;4.03;;;0.98;;
52041;SDS011;38052;45.944;13.624;2022-11-12T11:18:22;5.82;;;1.33;;
52041;SDS011;38052;45.944;13.624;2022-11-12T11:23:46;3.40;;;1.38;;
52041;SDS011;38052;45.944;13.624;2022-11-12T11:39:24;2.45;;;0.75;;
52041;SDS011;38052;45.944;13.624;2022-11-12T11:44:27;1.00;;;0.50;;
52041;SDS011;38052;45.944;13.624;2022-11-12T11:57:31;2.90;;;1.08;;
52041;SDS011;38052;45.944;13.624;2022-11-12T12:00:10;2.65;;;1.27;;
52041;SDS011;38052;45.944;13.624;2022-11-12T12:03:01;5.18;;;1.83;;
52041;SDS011;38052;45.944;13.624;2022-11-12T12:21:19;1.98;;;1.02;;
52041;SDS011;38052;45.944;13.624;2022-11-12T12:26:23;3.50;;;1.50;;
52041;SDS011;38052;45.944;13.624;2022-11-12T12:29:01;4.45;;;1.10;;
52041;SDS011;38052;45.944;13.624;2022-11-12T12:31:31;6.18;;;1.38;;
52041;SDS011;38052;45.944;13.624;2022-11-12T12:36:37;5.30;;;1.20;;
52041;SDS011;38052;45.944;13.624;2022-11-12T12:44:46;2.58;;;0.85;;
52041;SDS011;38052;45.944;13.624;2022-11-12T12:47:31;3.08;;;1.30;;
52041;SDS011;38052;45.944;13.624;2022-11-12T12:49:59;5.72;;;1.38;;
52041;SDS011;38052;45.944;13.624;2022-11-12T12:52:25;4.95;;;1.23;;
52041;SDS011;38052;45.944;13.624;2022-11-12T12:59:59;3.88;;;1.00;;
52041;SDS011;38052;45.944;13.624;2022-11-12T13:02:37;1.73;;;0.82;;
52041;SDS011;38052;45.944;13.624;2022-11-12T13:05:04;3.80;;;1.20;;
52041;SDS011;38052;45.944;13.624;2022-11-12T13:07:43;2.92;;;1.08;;
52041;SDS011;38052;45.944;13.624;2022-11-12T13:13:02;4.95;;;1.10;;
52041;SDS011;38052;45.944;13.624;2022-11-12T13:15:51;5.00;;;0.85;;
52041;SDS011;38052;45.944;13.624;2022-11-12T13:21:13;5.78;;;1.35;;
52041;SDS011;38052;45.944;13.624;2022-11-12T13:23:44;4.00;;;1.90;;
52041;SDS011;38052;45.944;13.624;2022-11-12T13:27:03;5.90;;;1.17;;
52041;SDS011;38052;45.944;13.624;2022-11-12T13:34:37;4.30;;;1.42;;
52041;SDS011;38052;45.944;13.624;2022-11-12T13:37:04;4.93;;;1.63;;
52041;SDS011;38052;45.944;13.624;2022-11-12T13:39:31;7.32;;;1.30;;
52041;SDS011;38052;45.944;13.624;2022-11-12T13:41:59;2.90;;;1.60;;
52041;SDS011;38052;45.944;13.624;2022-11-12T13:44:44;6.10;;;1.63;;
52041;SDS011;38052;45.944;13.624;2022-11-12T13:47:16;4.07;;;2.53;;
52041;SDS011;38052;45.944;13.624;2022-11-12T13:49:43;6.10;;;2.25;;
52041;SDS011;38052;45.944;13.624;2022-11-12T13:52:12;4.68;;;2.80;;
52041;SDS011;38052;45.944;13.624;2022-11-12T13:54:39;5.35;;;2.67;;
52041;SDS011;38052;45.944;13.624;2022-11-12T13:57:15;5.68;;;2.40;;
52041;SDS011;38052;45.944;13.624;2022-11-12T13:59:48;5.05;;;2.28;;
52041;SDS011;38052;45.944;13.624;2022-11-12T14:02:17;4.55;;;2.15;;
52041;SDS011;38052;45.944;13.624;2022-11-12T14:04:44;9.68;;;2.85;;
52041;SDS011;38052;45.944;13.624;2022-11-12T14:09:53;3.95;;;2.65;;
52041;SDS011;38052;45.944;13.624;2022-11-12T14:15:22;5.93;;;2.60;;
52041;SDS011;38052;45.944;13.624;2022-11-12T14:22:49;7.18;;;1.50;;
52041;SDS011;38052;45.944;13.624;2022-11-12T14:27:42;4.25;;;2.30;;
52041;SDS011;38052;45.944;13.624;2022-11-12T14:32:45;8.10;;;2.83;;
52041;SDS011;38052;45.944;13.624;2022-11-12T14:37:51;2.80;;;1.65;;
52041;SDS011;38052;45.944;13.624;2022-11-12T14:40:20;3.80;;;1.50;;
52041;SDS011;38052;45.944;13.624;2022-11-12T14:42:46;6.90;;;1.58;;
52041;SDS011;38052;45.944;13.624;2022-11-12T14:45:14;4.68;;;2.30;;
52041;SDS011;38052;45.944;13.624;2022-11-12T14:47:41;6.28;;;1.85;;
52041;SDS011;38052;45.944;13.624;2022-11-12T14:50:50;5.32;;;2.53;;
52041;SDS011;38052;45.944;13.624;2022-11-12T14:53:31;7.50;;;3.20;;
52041;SDS011;38052;45.944;13.624;2022-11-12T14:55:50;8.57;;;3.20;;
52041;SDS011;38052;45.944;13.624;2022-11-12T14:58:17;7.47;;;3.65;;
52041;SDS011;38052;45.944;13.624;2022-11-12T15:00:45;10.13;;;3.90;;
52041;SDS011;38052;45.944;13.624;2022-11-12T15:03:22;7.97;;;4.05;;
52041;SDS011;38052;45.944;13.624;2022-11-12T15:05:53;7.50;;;3.92;;
52041;SDS011;38052;45.944;13.624;2022-11-12T15:08:30;9.68;;;4.60;;
52041;SDS011;38052;45.944;13.624;2022-11-12T15:10:57;6.38;;;4.22;;
52041;SDS011;38052;45.944;13.624;2022-11-12T15:13:39;10.43;;;4.95;;
52041;SDS011;38052;45.944;13.624;2022-11-12T15:16:05;6.75;;;3.28;;
52041;SDS011;38052;45.944;13.624;2022-11-12T15:18:33;10.15;;;5.15;;
52041;SDS011;38052;45.944;13.624;2022-11-12T15:23:33;6.60;;;4.40;;
52041;SDS011;38052;45.944;13.624;2022-11-12T15:26:00;6.93;;;4.38;;
52041;SDS011;38052;45.944;13.624;2022-11-12T15:28:27;6.43;;;4.15;;
52041;SDS011;38052;45.944;13.624;2022-11-12T15:31:26;7.07;;;4.78;;
52041;SDS011;38052;45.944;13.624;2022-11-12T15:33:46;7.47;;;4.85;;
52041;SDS011;38052;45.944;13.624;2022-11-12T15:36:16;9.20;;;5.40;;
52041;SDS011;38052;45.944;13.624;2022-11-12T15:38:46;11.43;;;6.75;;
52041;SDS011;38052;45.944;13.624;2022-11-12T15:41:22;11.85;;;5.10;;
52041;SDS011;38052;45.944;13.624;2022-11-12T15:43:50;7.70;;;4.82;;
52041;SDS011;38052;45.944;13.624;2022-11-12T15:46:16;9.02;;;4.72;;
52041;SDS011;38052;45.944;13.624;2022-11-12T15:48:43;8.10;;;5.10;;
52041;SDS011;38052;45.944;13.624;2022-11-12T15:51:09;6.30;;;3.95;;
52041;SDS011;38052;45.944;13.624;2022-11-12T15:53:36;8.02;;;5.00;;
52041;SDS011;38052;45.944;13.624;2022-11-12T15:56:02;7.35;;;4.40;;
52041;SDS011;38052;45.944;13.624;2022-11-12T15:58:30;8.75;;;5.25;;
52041;SDS011;38052;45.944;13.624;2022-11-12T16:00:56;7.90;;;4.30;;
52041;SDS011;38052;45.944;13.624;2022-11-12T16:03:23;10.07;;;3.58;;
52041;SDS011;38052;45.944;13.624;2022-11-12T16:05:49;12.20;;;7.20;;
52041;SDS011;38052;45.944;13.624;2022-11-12T16:08:16;19.17;;;9.85;;
52041;SDS011;38052;45.944;13.624;2022-11-12T16:10:44;8.18;;;5.10;;
52041;SDS011;38052;45.944;13.624;2022-11-12T16:13:32;9.15;;;4.82;;
52041;SDS011;38052;45.944;13.624;2022-11-12T16:15:57;6.63;;;4.18;;
52041;SDS011;38052;45.944;13.624;2022-11-12T16:18:24;10.02;;;3.95;;
52041;SDS011;38052;45.944;13.624;2022-11-12T16:20:50;7.40;;;5.07;;
52041;SDS011;38052;45.944;13.624;2022-11-12T16:23:17;7.93;;;5.00;;
52041;SDS011;38052;45.944;13.624;2022-11-12T16:25:43;8.32;;;4.90;;
52041;SDS011;38052;45.944;13.624;2022-11-12T16:28:14;8.88;;;4.38;;
52041;SDS011;38052;45.944;13.624;2022-11-12T16:30:41;11.15;;;4.93;;
52041;SDS011;38052;45.944;13.624;2022-11-12T16:33:09;11.50;;;5.78;;
52041;SDS011;38052;45.944;13.624;2022-11-12T16:35:36;13.77;;;6.43;;
52041;SDS011;38052;45.944;13.624;2022-11-12T16:38:02;12.20;;;7.80;;
52041;SDS011;38052;45.944;13.624;2022-11-12T16:40:29;13.82;;;7.90;;
52041;SDS011;38052;45.944;13.624;2022-11-12T16:42:55;17.38;;;7.80;;
52041;SDS011;38052;45.944;13.624;2022-11-12T16:45:24;13.05;;;7.25;;
52041;SDS011;38052;45.944;13.624;2022-11-12T16:47:52;8.30;;;5.53;;
52041;SDS011;38052;45.944;13.624;2022-11-12T16:50:19;7.95;;;4.68;;